Aktuální počasí v Česku a ve světě - METAR

Seznam meteostanic umístěných nejčasteji na letišti v ČR a ve světě

Vyhledat místa podle abecedy:
A B C D E F G H I J K L M N O P Q R S T U V W X Y Z

Filtrovat:

ID stanice:
a/nebo
Název místa (fulltext):
 
Místo (ID)Naposledy načteno 
Ústí nad Labem - Kočkov (Usti n/L) 05.12.2020 09:00 UTC Zobrazit data
Místo: Ústí nad Labem - Kočkov
Teplota: 5 °C (pocitová: -0.7 °C)
Vítr: 3 m/s z(e) 120°
Počasí: skoro zataženo
Dohlednost: 26 km
Zákl. oblačnosti: 1/8 450 m;6/8 6900 m
Vlhkost: 81%
Ústí nad Orlicí (Usti n/O) 05.12.2020 09:00 UTC Zobrazit data
Místo: Ústí nad Orlicí
Teplota: 7 °C (pocitová: -0.7 °C)
Vítr: 8 m/s z(e) 150°
Počasí: skoro zataženo
Dohlednost: 16 km
Zákl. oblačnosti: 1/8 480 m;5/8 3900 m
Vlhkost: 76%
Ulaanbaatar (ZMUB) 20.02.2019 12:00 UTC Zobrazit METAR
ZMUB 201200Z CAVOK M14/M25 Q1021 NOSIG RMK QFE657.8 33
Uvea Island (NLWW) 02.12.2020 20:10 UTC Zobrazit METAR
NLWW 022010Z 11008KT 080V140 9999 FEW025 30/26 Q1011 TEMPO 4000 SHRA BKN010 BKN012 SCT020TCU
Uzhhorod (UKLU) 28.11.2020 09:00 UTC Zobrazit METAR
UKLU 280900Z 8000 OVC012 M00/M01 Q1022 R10/690330 NOSIG
Reklama


Další české internetové stránky (nejen) o počasí najdete v katalogu TOPlist - weby o počasí nebo vyhledejte na internetu, co jste tu na 🌞 Slunečnu ⛅ zatím nenašli:
⭐ Přidat Slunečno.cz do oblíbených | 🏠 Nastavit Slunečno.cz jako HOMEPAGE

⬆️ Posunout stránku nahoru ⬆️
Reklama